sensor_id;sensor_type;location;lat;lon;timestamp;P1;durP1;ratioP1;P2;durP2;ratioP2
9459;SDS011;4768;42.664;23.240;2022-10-17T00:00:37;7.33;;;5.40;;
9459;SDS011;4768;42.664;23.240;2022-10-17T00:03:04;11.63;;;6.00;;
9459;SDS011;4768;42.664;23.240;2022-10-17T00:05:31;9.90;;;6.03;;
9459;SDS011;4768;42.664;23.240;2022-10-17T00:07:57;6.33;;;5.70;;
9459;SDS011;4768;42.664;23.240;2022-10-17T00:10:24;9.47;;;5.80;;
9459;SDS011;4768;42.664;23.240;2022-10-17T00:12:52;8.97;;;6.33;;
9459;SDS011;4768;42.664;23.240;2022-10-17T00:15:19;11.90;;;5.60;;
9459;SDS011;4768;42.664;23.240;2022-10-17T00:17:46;9.33;;;5.87;;
9459;SDS011;4768;42.664;23.240;2022-10-17T00:20:13;9.37;;;5.60;;
9459;SDS011;4768;42.664;23.240;2022-10-17T00:22:41;9.23;;;6.30;;
9459;SDS011;4768;42.664;23.240;2022-10-17T00:25:08;10.33;;;6.50;;
9459;SDS011;4768;42.664;23.240;2022-10-17T00:27:35;9.67;;;6.33;;
9459;SDS011;4768;42.664;23.240;2022-10-17T00:30:05;11.33;;;5.67;;
9459;SDS011;4768;42.664;23.240;2022-10-17T00:32:33;10.33;;;6.27;;
9459;SDS011;4768;42.664;23.240;2022-10-17T00:35:00;8.70;;;6.67;;
9459;SDS011;4768;42.664;23.240;2022-10-17T00:37:27;9.30;;;6.47;;
9459;SDS011;4768;42.664;23.240;2022-10-17T00:39:55;10.13;;;6.40;;
9459;SDS011;4768;42.664;23.240;2022-10-17T00:42:22;10.77;;;7.13;;
9459;SDS011;4768;42.664;23.240;2022-10-17T00:44:56;10.67;;;7.47;;
9459;SDS011;4768;42.664;23.240;2022-10-17T00:47:27;9.67;;;6.50;;
9459;SDS011;4768;42.664;23.240;2022-10-17T00:49:55;9.00;;;6.50;;
9459;SDS011;4768;42.664;23.240;2022-10-17T00:52:24;10.90;;;7.10;;
9459;SDS011;4768;42.664;23.240;2022-10-17T00:54:54;9.50;;;6.90;;
9459;SDS011;4768;42.664;23.240;2022-10-17T00:57:23;15.40;;;6.83;;
9459;SDS011;4768;42.664;23.240;2022-10-17T00:59:51;11.23;;;6.63;;
9459;SDS011;4768;42.664;23.240;2022-10-17T01:02:22;10.77;;;6.80;;
9459;SDS011;4768;42.664;23.240;2022-10-17T01:04:51;11.23;;;6.80;;
9459;SDS011;4768;42.664;23.240;2022-10-17T01:07:20;11.83;;;6.83;;
9459;SDS011;4768;42.664;23.240;2022-10-17T01:09:47;9.90;;;6.70;;
9459;SDS011;4768;42.664;23.240;2022-10-17T01:12:16;13.03;;;6.60;;
9459;SDS011;4768;42.664;23.240;2022-10-17T01:14:49;11.93;;;7.43;;
9459;SDS011;4768;42.664;23.240;2022-10-17T01:17:28;13.40;;;7.53;;
9459;SDS011;4768;42.664;23.240;2022-10-17T01:22:57;13.63;;;8.43;;
9459;SDS011;4768;42.664;23.240;2022-10-17T01:25:40;14.50;;;7.70;;
9459;SDS011;4768;42.664;23.240;2022-10-17T01:28:24;10.87;;;7.43;;
9459;SDS011;4768;42.664;23.240;2022-10-17T01:31:07;11.83;;;7.40;;
9459;SDS011;4768;42.664;23.240;2022-10-17T01:33:45;13.80;;;7.87;;
9459;SDS011;4768;42.664;23.240;2022-10-17T01:36:22;12.40;;;7.83;;
9459;SDS011;4768;42.664;23.240;2022-10-17T01:38:56;10.80;;;8.00;;
9459;SDS011;4768;42.664;23.240;2022-10-17T01:41:27;10.87;;;7.60;;
9459;SDS011;4768;42.664;23.240;2022-10-17T01:44:04;12.33;;;8.07;;
9459;SDS011;4768;42.664;23.240;2022-10-17T01:46:38;15.57;;;9.70;;
9459;SDS011;4768;42.664;23.240;2022-10-17T01:49:07;14.97;;;8.80;;
9459;SDS011;4768;42.664;23.240;2022-10-17T01:51:36;12.50;;;8.73;;
9459;SDS011;4768;42.664;23.240;2022-10-17T01:54:08;11.03;;;8.40;;
9459;SDS011;4768;42.664;23.240;2022-10-17T01:56:37;11.83;;;8.33;;
9459;SDS011;4768;42.664;23.240;2022-10-17T01:59:08;10.30;;;7.93;;
9459;SDS011;4768;42.664;23.240;2022-10-17T02:01:40;17.07;;;8.07;;
9459;SDS011;4768;42.664;23.240;2022-10-17T02:04:09;12.90;;;8.40;;
9459;SDS011;4768;42.664;23.240;2022-10-17T02:06:36;12.90;;;8.27;;
9459;SDS011;4768;42.664;23.240;2022-10-17T02:09:14;13.67;;;8.00;;
9459;SDS011;4768;42.664;23.240;2022-10-17T02:11:44;14.03;;;7.87;;
9459;SDS011;4768;42.664;23.240;2022-10-17T02:14:20;10.87;;;7.60;;
9459;SDS011;4768;42.664;23.240;2022-10-17T02:16:53;13.93;;;7.93;;
9459;SDS011;4768;42.664;23.240;2022-10-17T02:19:33;11.33;;;8.30;;
9459;SDS011;4768;42.664;23.240;2022-10-17T02:22:13;10.33;;;7.67;;
9459;SDS011;4768;42.664;23.240;2022-10-17T02:24:48;15.03;;;8.03;;
9459;SDS011;4768;42.664;23.240;2022-10-17T02:27:19;16.67;;;8.60;;
9459;SDS011;4768;42.664;23.240;2022-10-17T02:29:57;14.17;;;8.43;;
9459;SDS011;4768;42.664;23.240;2022-10-17T02:32:32;14.33;;;8.77;;
9459;SDS011;4768;42.664;23.240;2022-10-17T02:35:02;13.63;;;9.23;;
9459;SDS011;4768;42.664;23.240;2022-10-17T02:37:32;12.57;;;8.60;;
9459;SDS011;4768;42.664;23.240;2022-10-17T02:40:01;16.20;;;9.13;;
9459;SDS011;4768;42.664;23.240;2022-10-17T02:42:30;14.03;;;8.83;;
9459;SDS011;4768;42.664;23.240;2022-10-17T02:44:58;16.30;;;9.17;;
9459;SDS011;4768;42.664;23.240;2022-10-17T02:47:29;14.87;;;8.87;;
9459;SDS011;4768;42.664;23.240;2022-10-17T02:50:01;12.60;;;9.37;;
9459;SDS011;4768;42.664;23.240;2022-10-17T02:52:31;14.93;;;9.27;;
9459;SDS011;4768;42.664;23.240;2022-10-17T02:55:05;15.10;;;9.10;;
9459;SDS011;4768;42.664;23.240;2022-10-17T02:57:37;12.93;;;8.97;;
9459;SDS011;4768;42.664;23.240;2022-10-17T03:00:07;13.30;;;8.87;;
9459;SDS011;4768;42.664;23.240;2022-10-17T03:02:39;12.67;;;9.07;;
9459;SDS011;4768;42.664;23.240;2022-10-17T03:05:07;12.60;;;8.93;;
9459;SDS011;4768;42.664;23.240;2022-10-17T03:07:34;13.70;;;8.97;;
9459;SDS011;4768;42.664;23.240;2022-10-17T03:10:01;13.07;;;8.93;;
9459;SDS011;4768;42.664;23.240;2022-10-17T03:12:28;16.87;;;10.97;;
9459;SDS011;4768;42.664;23.240;2022-10-17T03:14:55;14.17;;;10.03;;
9459;SDS011;4768;42.664;23.240;2022-10-17T03:17:22;12.97;;;8.47;;
9459;SDS011;4768;42.664;23.240;2022-10-17T03:19:50;13.37;;;8.10;;
9459;SDS011;4768;42.664;23.240;2022-10-17T03:22:16;11.67;;;7.40;;
9459;SDS011;4768;42.664;23.240;2022-10-17T03:24:43;14.17;;;8.00;;
9459;SDS011;4768;42.664;23.240;2022-10-17T03:27:10;11.20;;;8.00;;
9459;SDS011;4768;42.664;23.240;2022-10-17T03:29:37;13.30;;;8.47;;
9459;SDS011;4768;42.664;23.240;2022-10-17T03:32:04;11.17;;;8.17;;
9459;SDS011;4768;42.664;23.240;2022-10-17T03:34:31;15.90;;;8.10;;
9459;SDS011;4768;42.664;23.240;2022-10-17T03:36:59;11.77;;;8.13;;
9459;SDS011;4768;42.664;23.240;2022-10-17T03:39:26;14.47;;;9.07;;
9459;SDS011;4768;42.664;23.240;2022-10-17T03:41:52;11.43;;;8.10;;
9459;SDS011;4768;42.664;23.240;2022-10-17T03:44:19;12.20;;;8.87;;
9459;SDS011;4768;42.664;23.240;2022-10-17T03:46:46;12.83;;;8.83;;
9459;SDS011;4768;42.664;23.240;2022-10-17T03:49:12;14.03;;;8.60;;
9459;SDS011;4768;42.664;23.240;2022-10-17T03:51:39;13.20;;;9.80;;
9459;SDS011;4768;42.664;23.240;2022-10-17T03:54:07;16.30;;;9.60;;
9459;SDS011;4768;42.664;23.240;2022-10-17T03:56:34;15.03;;;9.37;;
9459;SDS011;4768;42.664;23.240;2022-10-17T03:59:01;15.07;;;9.70;;
9459;SDS011;4768;42.664;23.240;2022-10-17T04:01:27;16.87;;;11.63;;
9459;SDS011;4768;42.664;23.240;2022-10-17T04:03:55;14.77;;;9.57;;
9459;SDS011;4768;42.664;23.240;2022-10-17T04:06:22;14.13;;;9.43;;
9459;SDS011;4768;42.664;23.240;2022-10-17T04:08:49;17.57;;;9.80;;
9459;SDS011;4768;42.664;23.240;2022-10-17T04:11:18;14.40;;;9.63;;
9459;SDS011;4768;42.664;23.240;2022-10-17T04:13:45;15.63;;;9.47;;
9459;SDS011;4768;42.664;23.240;2022-10-17T04:16:14;14.67;;;9.63;;
9459;SDS011;4768;42.664;23.240;2022-10-17T04:18:42;14.77;;;9.10;;
9459;SDS011;4768;42.664;23.240;2022-10-17T04:21:10;12.43;;;9.27;;
9459;SDS011;4768;42.664;23.240;2022-10-17T04:23:37;13.73;;;7.90;;
9459;SDS011;4768;42.664;23.240;2022-10-17T04:26:05;13.20;;;8.13;;
9459;SDS011;4768;42.664;23.240;2022-10-17T04:28:33;12.20;;;7.53;;
9459;SDS011;4768;42.664;23.240;2022-10-17T04:31:01;14.77;;;8.67;;
9459;SDS011;4768;42.664;23.240;2022-10-17T04:33:29;12.80;;;8.80;;
9459;SDS011;4768;42.664;23.240;2022-10-17T04:35:57;14.67;;;9.10;;
9459;SDS011;4768;42.664;23.240;2022-10-17T04:38:24;14.37;;;8.40;;
9459;SDS011;4768;42.664;23.240;2022-10-17T04:40:51;12.50;;;8.63;;
9459;SDS011;4768;42.664;23.240;2022-10-17T04:43:18;13.43;;;9.00;;
9459;SDS011;4768;42.664;23.240;2022-10-17T04:45:46;17.70;;;8.97;;
9459;SDS011;4768;42.664;23.240;2022-10-17T04:48:13;17.50;;;9.60;;
9459;SDS011;4768;42.664;23.240;2022-10-17T04:50:40;13.23;;;8.70;;
9459;SDS011;4768;42.664;23.240;2022-10-17T04:53:06;12.73;;;7.93;;
9459;SDS011;4768;42.664;23.240;2022-10-17T04:55:35;14.00;;;8.87;;
9459;SDS011;4768;42.664;23.240;2022-10-17T04:58:03;17.77;;;8.23;;
9459;SDS011;4768;42.664;23.240;2022-10-17T05:00:30;14.47;;;8.60;;
9459;SDS011;4768;42.664;23.240;2022-10-17T05:02:58;12.43;;;7.57;;
9459;SDS011;4768;42.664;23.240;2022-10-17T05:05:25;10.37;;;8.13;;
9459;SDS011;4768;42.664;23.240;2022-10-17T05:07:52;11.97;;;8.17;;
9459;SDS011;4768;42.664;23.240;2022-10-17T05:10:18;11.07;;;7.20;;
9459;SDS011;4768;42.664;23.240;2022-10-17T05:12:45;13.20;;;7.80;;
9459;SDS011;4768;42.664;23.240;2022-10-17T05:15:12;12.30;;;7.87;;
9459;SDS011;4768;42.664;23.240;2022-10-17T05:17:39;10.27;;;7.63;;
9459;SDS011;4768;42.664;23.240;2022-10-17T05:20:08;11.70;;;7.47;;
9459;SDS011;4768;42.664;23.240;2022-10-17T05:22:35;14.87;;;8.67;;
9459;SDS011;4768;42.664;23.240;2022-10-17T05:25:02;13.63;;;8.90;;
9459;SDS011;4768;42.664;23.240;2022-10-17T05:27:29;16.40;;;8.90;;
9459;SDS011;4768;42.664;23.240;2022-10-17T05:29:56;21.10;;;10.10;;
9459;SDS011;4768;42.664;23.240;2022-10-17T05:32:23;19.27;;;10.43;;
9459;SDS011;4768;42.664;23.240;2022-10-17T05:34:50;22.77;;;10.83;;
9459;SDS011;4768;42.664;23.240;2022-10-17T05:37:18;21.57;;;10.83;;
9459;SDS011;4768;42.664;23.240;2022-10-17T05:39:44;24.87;;;11.63;;
9459;SDS011;4768;42.664;23.240;2022-10-17T05:42:11;29.73;;;11.67;;
9459;SDS011;4768;42.664;23.240;2022-10-17T05:44:38;18.27;;;10.30;;
9459;SDS011;4768;42.664;23.240;2022-10-17T05:47:05;21.10;;;11.43;;
9459;SDS011;4768;42.664;23.240;2022-10-17T05:49:32;24.03;;;11.73;;
9459;SDS011;4768;42.664;23.240;2022-10-17T05:51:59;19.50;;;11.67;;
9459;SDS011;4768;42.664;23.240;2022-10-17T05:54:27;23.03;;;11.97;;
9459;SDS011;4768;42.664;23.240;2022-10-17T05:56:54;29.43;;;12.63;;
9459;SDS011;4768;42.664;23.240;2022-10-17T05:59:23;25.53;;;12.77;;
9459;SDS011;4768;42.664;23.240;2022-10-17T06:01:50;23.73;;;12.57;;
9459;SDS011;4768;42.664;23.240;2022-10-17T06:04:17;22.73;;;13.30;;
9459;SDS011;4768;42.664;23.240;2022-10-17T06:06:43;21.57;;;12.77;;
9459;SDS011;4768;42.664;23.240;2022-10-17T06:09:10;21.73;;;14.13;;
9459;SDS011;4768;42.664;23.240;2022-10-17T06:11:38;26.07;;;13.53;;
9459;SDS011;4768;42.664;23.240;2022-10-17T06:14:05;21.30;;;12.60;;
9459;SDS011;4768;42.664;23.240;2022-10-17T06:16:32;21.20;;;12.50;;
9459;SDS011;4768;42.664;23.240;2022-10-17T06:18:59;21.43;;;12.57;;
9459;SDS011;4768;42.664;23.240;2022-10-17T06:21:26;22.40;;;12.33;;
9459;SDS011;4768;42.664;23.240;2022-10-17T06:23:53;26.27;;;12.17;;
9459;SDS011;4768;42.664;23.240;2022-10-17T06:26:19;20.07;;;12.57;;
9459;SDS011;4768;42.664;23.240;2022-10-17T06:28:47;27.70;;;14.13;;
9459;SDS011;4768;42.664;23.240;2022-10-17T06:31:15;17.27;;;10.93;;
9459;SDS011;4768;42.664;23.240;2022-10-17T06:33:42;21.27;;;12.17;;
9459;SDS011;4768;42.664;23.240;2022-10-17T06:36:10;19.03;;;10.70;;
9459;SDS011;4768;42.664;23.240;2022-10-17T06:38:38;20.13;;;11.30;;
9459;SDS011;4768;42.664;23.240;2022-10-17T06:41:06;17.03;;;11.23;;
9459;SDS011;4768;42.664;23.240;2022-10-17T06:43:34;19.50;;;10.70;;
9459;SDS011;4768;42.664;23.240;2022-10-17T06:46:03;18.17;;;10.30;;
9459;SDS011;4768;42.664;23.240;2022-10-17T06:48:30;15.93;;;9.73;;
9459;SDS011;4768;42.664;23.240;2022-10-17T06:50:57;16.67;;;9.43;;
9459;SDS011;4768;42.664;23.240;2022-10-17T06:53:26;15.23;;;9.27;;
9459;SDS011;4768;42.664;23.240;2022-10-17T06:55:53;13.70;;;9.40;;
9459;SDS011;4768;42.664;23.240;2022-10-17T06:58:25;16.27;;;10.40;;
9459;SDS011;4768;42.664;23.240;2022-10-17T07:00:52;15.97;;;10.23;;
9459;SDS011;4768;42.664;23.240;2022-10-17T07:03:24;20.70;;;12.73;;
9459;SDS011;4768;42.664;23.240;2022-10-17T07:05:51;17.17;;;11.30;;
9459;SDS011;4768;42.664;23.240;2022-10-17T07:08:18;14.03;;;9.43;;
9459;SDS011;4768;42.664;23.240;2022-10-17T07:10:44;15.97;;;10.40;;
9459;SDS011;4768;42.664;23.240;2022-10-17T07:13:11;21.50;;;11.43;;
9459;SDS011;4768;42.664;23.240;2022-10-17T07:15:38;20.80;;;12.23;;
9459;SDS011;4768;42.664;23.240;2022-10-17T07:18:05;15.00;;;10.77;;
9459;SDS011;4768;42.664;23.240;2022-10-17T07:20:34;15.60;;;10.97;;
9459;SDS011;4768;42.664;23.240;2022-10-17T07:23:01;15.30;;;10.80;;
9459;SDS011;4768;42.664;23.240;2022-10-17T07:25:28;19.07;;;10.77;;
9459;SDS011;4768;42.664;23.240;2022-10-17T07:27:55;13.07;;;10.17;;
9459;SDS011;4768;42.664;23.240;2022-10-17T07:30:21;17.27;;;11.33;;
9459;SDS011;4768;42.664;23.240;2022-10-17T07:32:51;18.70;;;10.93;;
9459;SDS011;4768;42.664;23.240;2022-10-17T07:35:18;14.97;;;11.63;;
9459;SDS011;4768;42.664;23.240;2022-10-17T07:37:47;19.83;;;11.30;;
9459;SDS011;4768;42.664;23.240;2022-10-17T07:40:14;20.90;;;11.57;;
9459;SDS011;4768;42.664;23.240;2022-10-17T07:42:40;19.47;;;12.50;;
9459;SDS011;4768;42.664;23.240;2022-10-17T07:45:07;21.77;;;13.17;;
9459;SDS011;4768;42.664;23.240;2022-10-17T07:47:35;22.97;;;13.23;;
9459;SDS011;4768;42.664;23.240;2022-10-17T07:50:02;18.83;;;13.43;;
9459;SDS011;4768;42.664;23.240;2022-10-17T07:52:29;23.40;;;14.70;;
9459;SDS011;4768;42.664;23.240;2022-10-17T07:54:57;22.80;;;15.67;;
9459;SDS011;4768;42.664;23.240;2022-10-17T07:57:24;23.53;;;14.83;;
9459;SDS011;4768;42.664;23.240;2022-10-17T07:59:51;25.37;;;15.67;;
9459;SDS011;4768;42.664;23.240;2022-10-17T08:02:19;24.33;;;14.77;;
9459;SDS011;4768;42.664;23.240;2022-10-17T08:04:48;26.73;;;14.10;;
9459;SDS011;4768;42.664;23.240;2022-10-17T08:07:14;20.43;;;12.97;;
9459;SDS011;4768;42.664;23.240;2022-10-17T08:09:41;17.57;;;12.30;;
9459;SDS011;4768;42.664;23.240;2022-10-17T08:12:09;21.47;;;12.83;;
9459;SDS011;4768;42.664;23.240;2022-10-17T08:14:38;20.53;;;13.60;;
9459;SDS011;4768;42.664;23.240;2022-10-17T08:17:06;19.07;;;12.70;;
9459;SDS011;4768;42.664;23.240;2022-10-17T08:19:33;21.47;;;12.53;;
9459;SDS011;4768;42.664;23.240;2022-10-17T08:21:59;17.97;;;11.90;;
9459;SDS011;4768;42.664;23.240;2022-10-17T08:24:26;23.90;;;12.97;;
9459;SDS011;4768;42.664;23.240;2022-10-17T08:26:53;23.90;;;12.53;;
9459;SDS011;4768;42.664;23.240;2022-10-17T08:29:23;23.30;;;13.47;;
9459;SDS011;4768;42.664;23.240;2022-10-17T08:31:50;18.07;;;13.20;;
9459;SDS011;4768;42.664;23.240;2022-10-17T08:34:17;16.43;;;12.80;;
9459;SDS011;4768;42.664;23.240;2022-10-17T08:36:44;19.07;;;11.87;;
9459;SDS011;4768;42.664;23.240;2022-10-17T08:39:10;20.70;;;12.90;;
9459;SDS011;4768;42.664;23.240;2022-10-17T08:41:44;14.67;;;10.77;;
9459;SDS011;4768;42.664;23.240;2022-10-17T08:44:20;19.50;;;11.47;;
9459;SDS011;4768;42.664;23.240;2022-10-17T08:46:57;15.77;;;10.43;;
9459;SDS011;4768;42.664;23.240;2022-10-17T08:49:33;22.53;;;10.90;;
9459;SDS011;4768;42.664;23.240;2022-10-17T08:52:09;15.47;;;10.20;;
9459;SDS011;4768;42.664;23.240;2022-10-17T08:54:41;11.83;;;9.37;;
9459;SDS011;4768;42.664;23.240;2022-10-17T08:57:10;17.33;;;10.97;;
9459;SDS011;4768;42.664;23.240;2022-10-17T08:59:40;18.60;;;10.40;;
9459;SDS011;4768;42.664;23.240;2022-10-17T09:02:14;13.47;;;10.40;;
9459;SDS011;4768;42.664;23.240;2022-10-17T09:08:20;22.40;;;9.67;;
9459;SDS011;4768;42.664;23.240;2022-10-17T09:10:56;16.67;;;11.50;;
9459;SDS011;4768;42.664;23.240;2022-10-17T09:13:31;17.83;;;11.47;;
9459;SDS011;4768;42.664;23.240;2022-10-17T09:16:27;22.03;;;10.60;;
9459;SDS011;4768;42.664;23.240;2022-10-17T09:19:07;25.17;;;12.20;;
9459;SDS011;4768;42.664;23.240;2022-10-17T09:21:42;37.80;;;27.57;;
9459;SDS011;4768;42.664;23.240;2022-10-17T09:24:14;20.97;;;11.43;;
9459;SDS011;4768;42.664;23.240;2022-10-17T09:26:44;20.40;;;12.10;;
9459;SDS011;4768;42.664;23.240;2022-10-17T09:29:17;18.90;;;13.03;;
9459;SDS011;4768;42.664;23.240;2022-10-17T09:31:50;20.90;;;12.97;;
9459;SDS011;4768;42.664;23.240;2022-10-17T09:34:23;20.50;;;12.90;;
9459;SDS011;4768;42.664;23.240;2022-10-17T09:36:53;20.73;;;11.50;;
9459;SDS011;4768;42.664;23.240;2022-10-17T09:39:21;17.90;;;10.33;;
9459;SDS011;4768;42.664;23.240;2022-10-17T09:41:51;15.10;;;10.60;;
9459;SDS011;4768;42.664;23.240;2022-10-17T09:44:20;14.70;;;10.80;;
9459;SDS011;4768;42.664;23.240;2022-10-17T09:49:44;14.87;;;10.70;;
9459;SDS011;4768;42.664;23.240;2022-10-17T09:52:13;15.50;;;8.03;;
9459;SDS011;4768;42.664;23.240;2022-10-17T09:54:43;10.20;;;7.23;;
9459;SDS011;4768;42.664;23.240;2022-10-17T09:57:12;10.43;;;6.53;;
9459;SDS011;4768;42.664;23.240;2022-10-17T09:59:41;8.63;;;6.17;;
9459;SDS011;4768;42.664;23.240;2022-10-17T10:02:15;9.20;;;6.03;;
9459;SDS011;4768;42.664;23.240;2022-10-17T10:04:51;9.97;;;5.60;;
9459;SDS011;4768;42.664;23.240;2022-10-17T10:07:19;8.97;;;5.27;;
9459;SDS011;4768;42.664;23.240;2022-10-17T10:09:47;8.07;;;5.60;;
9459;SDS011;4768;42.664;23.240;2022-10-17T10:12:15;10.43;;;5.53;;
9459;SDS011;4768;42.664;23.240;2022-10-17T10:14:44;8.17;;;4.67;;
9459;SDS011;4768;42.664;23.240;2022-10-17T10:17:25;8.80;;;4.10;;
9459;SDS011;4768;42.664;23.240;2022-10-17T10:19:54;5.60;;;4.10;;
9459;SDS011;4768;42.664;23.240;2022-10-17T10:22:21;12.90;;;4.77;;
9459;SDS011;4768;42.664;23.240;2022-10-17T10:25:05;6.50;;;4.50;;
9459;SDS011;4768;42.664;23.240;2022-10-17T10:27:33;5.77;;;3.60;;
9459;SDS011;4768;42.664;23.240;2022-10-17T10:30:00;6.20;;;3.53;;
9459;SDS011;4768;42.664;23.240;2022-10-17T10:32:31;6.73;;;3.37;;
9459;SDS011;4768;42.664;23.240;2022-10-17T10:35:02;4.40;;;2.87;;
9459;SDS011;4768;42.664;23.240;2022-10-17T10:37:33;4.33;;;2.63;;
9459;SDS011;4768;42.664;23.240;2022-10-17T10:40:04;2.83;;;2.50;;
9459;SDS011;4768;42.664;23.240;2022-10-17T10:42:34;3.23;;;2.13;;
9459;SDS011;4768;42.664;23.240;2022-10-17T10:45:03;5.50;;;2.23;;
9459;SDS011;4768;42.664;23.240;2022-10-17T10:47:49;2.67;;;2.40;;
9459;SDS011;4768;42.664;23.240;2022-10-17T10:50:22;4.50;;;2.63;;
9459;SDS011;4768;42.664;23.240;2022-10-17T10:52:55;3.27;;;2.37;;
9459;SDS011;4768;42.664;23.240;2022-10-17T10:55:33;4.13;;;2.53;;
9459;SDS011;4768;42.664;23.240;2022-10-17T10:58:08;4.43;;;2.93;;
9459;SDS011;4768;42.664;23.240;2022-10-17T11:00:49;5.50;;;2.57;;
9459;SDS011;4768;42.664;23.240;2022-10-17T11:03:20;4.93;;;2.50;;
9459;SDS011;4768;42.664;23.240;2022-10-17T11:05:53;4.43;;;2.80;;
9459;SDS011;4768;42.664;23.240;2022-10-17T11:08:27;3.60;;;2.87;;
9459;SDS011;4768;42.664;23.240;2022-10-17T11:11:02;4.70;;;2.60;;
9459;SDS011;4768;42.664;23.240;2022-10-17T11:13:39;3.13;;;2.60;;
9459;SDS011;4768;42.664;23.240;2022-10-17T11:16:20;3.43;;;2.63;;
9459;SDS011;4768;42.664;23.240;2022-10-17T11:19:02;5.10;;;2.63;;
9459;SDS011;4768;42.664;23.240;2022-10-17T11:21:36;5.53;;;2.57;;
9459;SDS011;4768;42.664;23.240;2022-10-17T11:24:11;5.57;;;2.50;;
9459;SDS011;4768;42.664;23.240;2022-10-17T11:26:45;4.17;;;2.67;;
9459;SDS011;4768;42.664;23.240;2022-10-17T11:29:17;3.43;;;2.60;;
9459;SDS011;4768;42.664;23.240;2022-10-17T11:31:46;8.00;;;2.57;;
9459;SDS011;4768;42.664;23.240;2022-10-17T11:34:18;3.90;;;2.73;;
9459;SDS011;4768;42.664;23.240;2022-10-17T11:36:51;4.87;;;2.27;;
9459;SDS011;4768;42.664;23.240;2022-10-17T11:39:22;2.90;;;2.10;;
9459;SDS011;4768;42.664;23.240;2022-10-17T11:41:56;4.33;;;2.50;;
9459;SDS011;4768;42.664;23.240;2022-10-17T11:44:28;5.67;;;2.27;;
9459;SDS011;4768;42.664;23.240;2022-10-17T11:46:59;5.77;;;2.20;;
9459;SDS011;4768;42.664;23.240;2022-10-17T11:49:33;3.77;;;2.37;;
9459;SDS011;4768;42.664;23.240;2022-10-17T11:52:05;2.83;;;2.20;;
9459;SDS011;4768;42.664;23.240;2022-10-17T11:54:42;3.97;;;2.20;;
9459;SDS011;4768;42.664;23.240;2022-10-17T11:57:31;4.10;;;2.17;;
9459;SDS011;4768;42.664;23.240;2022-10-17T12:00:10;3.90;;;1.87;;
9459;SDS011;4768;42.664;23.240;2022-10-17T12:02:56;2.73;;;2.10;;
9459;SDS011;4768;42.664;23.240;2022-10-17T12:05:32;4.23;;;2.20;;
9459;SDS011;4768;42.664;23.240;2022-10-17T12:08:08;3.60;;;2.00;;
9459;SDS011;4768;42.664;23.240;2022-10-17T12:10:44;1.90;;;1.80;;
9459;SDS011;4768;42.664;23.240;2022-10-17T12:16:35;4.00;;;2.30;;
9459;SDS011;4768;42.664;23.240;2022-10-17T12:24:55;4.57;;;2.47;;
9459;SDS011;4768;42.664;23.240;2022-10-17T12:27:37;2.80;;;2.20;;
9459;SDS011;4768;42.664;23.240;2022-10-17T12:30:18;3.87;;;2.27;;
9459;SDS011;4768;42.664;23.240;2022-10-17T12:33:01;4.27;;;2.60;;
9459;SDS011;4768;42.664;23.240;2022-10-17T12:35:31;4.80;;;2.57;;
9459;SDS011;4768;42.664;23.240;2022-10-17T12:40:57;2.83;;;2.20;;
9459;SDS011;4768;42.664;23.240;2022-10-17T12:43:45;4.50;;;2.37;;
9459;SDS011;4768;42.664;23.240;2022-10-17T12:49:20;3.60;;;2.10;;
9459;SDS011;4768;42.664;23.240;2022-10-17T12:55:16;4.93;;;2.20;;
9459;SDS011;4768;42.664;23.240;2022-10-17T12:57:53;3.07;;;2.33;;
9459;SDS011;4768;42.664;23.240;2022-10-17T13:00:25;2.53;;;2.30;;
9459;SDS011;4768;42.664;23.240;2022-10-17T13:03:01;3.13;;;2.20;;
9459;SDS011;4768;42.664;23.240;2022-10-17T13:05:32;2.77;;;2.17;;
9459;SDS011;4768;42.664;23.240;2022-10-17T13:08:01;2.67;;;2.43;;
9459;SDS011;4768;42.664;23.240;2022-10-17T13:10:32;4.87;;;2.60;;
9459;SDS011;4768;42.664;23.240;2022-10-17T13:13:04;3.43;;;2.50;;
9459;SDS011;4768;42.664;23.240;2022-10-17T13:15:36;5.53;;;3.70;;
9459;SDS011;4768;42.664;23.240;2022-10-17T13:18:03;4.53;;;2.40;;
9459;SDS011;4768;42.664;23.240;2022-10-17T13:20:30;7.73;;;2.53;;
9459;SDS011;4768;42.664;23.240;2022-10-17T13:22:57;3.43;;;2.50;;
9459;SDS011;4768;42.664;23.240;2022-10-17T13:25:25;6.63;;;2.30;;
9459;SDS011;4768;42.664;23.240;2022-10-17T13:28:05;2.00;;;1.83;;
9459;SDS011;4768;42.664;23.240;2022-10-17T13:30:37;2.87;;;2.40;;
9459;SDS011;4768;42.664;23.240;2022-10-17T13:33:15;7.90;;;2.47;;
9459;SDS011;4768;42.664;23.240;2022-10-17T13:35:53;5.77;;;2.83;;
9459;SDS011;4768;42.664;23.240;2022-10-17T13:38:20;6.33;;;2.83;;
9459;SDS011;4768;42.664;23.240;2022-10-17T13:40:51;4.20;;;3.00;;
9459;SDS011;4768;42.664;23.240;2022-10-17T13:43:20;4.70;;;2.40;;
9459;SDS011;4768;42.664;23.240;2022-10-17T13:45:49;3.43;;;2.53;;
9459;SDS011;4768;42.664;23.240;2022-10-17T13:48:17;4.30;;;2.50;;
9459;SDS011;4768;42.664;23.240;2022-10-17T13:50:47;3.67;;;2.60;;
9459;SDS011;4768;42.664;23.240;2022-10-17T13:53:18;3.63;;;2.17;;
9459;SDS011;4768;42.664;23.240;2022-10-17T13:55:51;3.63;;;2.30;;
9459;SDS011;4768;42.664;23.240;2022-10-17T13:58:30;5.90;;;2.87;;
9459;SDS011;4768;42.664;23.240;2022-10-17T14:01:04;4.53;;;2.37;;
9459;SDS011;4768;42.664;23.240;2022-10-17T14:03:32;3.93;;;2.57;;
9459;SDS011;4768;42.664;23.240;2022-10-17T14:08:46;4.43;;;2.50;;
9459;SDS011;4768;42.664;23.240;2022-10-17T14:11:18;8.57;;;2.80;;
9459;SDS011;4768;42.664;23.240;2022-10-17T14:13:51;6.67;;;2.57;;
9459;SDS011;4768;42.664;23.240;2022-10-17T14:16:20;7.90;;;3.03;;
9459;SDS011;4768;42.664;23.240;2022-10-17T14:18:48;3.83;;;2.23;;
9459;SDS011;4768;42.664;23.240;2022-10-17T14:21:17;4.87;;;2.70;;
9459;SDS011;4768;42.664;23.240;2022-10-17T14:23:45;7.50;;;3.27;;
9459;SDS011;4768;42.664;23.240;2022-10-17T14:26:13;7.37;;;2.90;;
9459;SDS011;4768;42.664;23.240;2022-10-17T14:28:42;7.10;;;2.70;;
9459;SDS011;4768;42.664;23.240;2022-10-17T14:31:16;9.03;;;2.87;;
9459;SDS011;4768;42.664;23.240;2022-10-17T14:33:47;6.70;;;3.30;;
9459;SDS011;4768;42.664;23.240;2022-10-17T14:36:14;2.83;;;2.53;;
9459;SDS011;4768;42.664;23.240;2022-10-17T14:38:45;6.23;;;3.40;;
9459;SDS011;4768;42.664;23.240;2022-10-17T14:41:14;6.23;;;3.30;;
9459;SDS011;4768;42.664;23.240;2022-10-17T14:43:52;3.63;;;2.80;;
9459;SDS011;4768;42.664;23.240;2022-10-17T14:46:21;7.50;;;3.73;;
9459;SDS011;4768;42.664;23.240;2022-10-17T14:48:52;11.90;;;3.57;;
9459;SDS011;4768;42.664;23.240;2022-10-17T14:51:21;3.60;;;3.30;;
9459;SDS011;4768;42.664;23.240;2022-10-17T14:53:58;5.47;;;3.10;;
9459;SDS011;4768;42.664;23.240;2022-10-17T14:56:27;4.27;;;2.80;;
9459;SDS011;4768;42.664;23.240;2022-10-17T14:59:00;4.97;;;3.27;;
9459;SDS011;4768;42.664;23.240;2022-10-17T15:01:31;5.83;;;3.20;;
9459;SDS011;4768;42.664;23.240;2022-10-17T15:03:58;4.07;;;2.97;;
9459;SDS011;4768;42.664;23.240;2022-10-17T15:06:26;4.27;;;3.23;;
9459;SDS011;4768;42.664;23.240;2022-10-17T15:08:54;7.20;;;3.20;;
9459;SDS011;4768;42.664;23.240;2022-10-17T15:11:21;4.53;;;3.40;;
9459;SDS011;4768;42.664;23.240;2022-10-17T15:13:48;5.87;;;3.60;;
9459;SDS011;4768;42.664;23.240;2022-10-17T15:16:17;6.17;;;3.80;;
9459;SDS011;4768;42.664;23.240;2022-10-17T15:18:47;8.23;;;4.80;;
9459;SDS011;4768;42.664;23.240;2022-10-17T15:21:15;6.63;;;4.10;;
9459;SDS011;4768;42.664;23.240;2022-10-17T15:23:43;7.53;;;4.40;;
9459;SDS011;4768;42.664;23.240;2022-10-17T15:26:14;12.37;;;4.63;;
9459;SDS011;4768;42.664;23.240;2022-10-17T15:28:43;10.20;;;4.30;;
9459;SDS011;4768;42.664;23.240;2022-10-17T15:31:11;9.07;;;4.43;;
9459;SDS011;4768;42.664;23.240;2022-10-17T15:33:40;11.87;;;4.90;;
9459;SDS011;4768;42.664;23.240;2022-10-17T15:36:22;7.80;;;4.67;;